createdAt,value
2018-07-21T00:04:37.452Z,76.10
2018-07-21T00:07:06.510Z,77.00
2018-07-21T00:09:35.569Z,77.90
2018-07-21T00:12:04.618Z,77.80
2018-07-21T00:14:33.691Z,78.20
2018-07-21T00:17:02.765Z,78.50
2018-07-21T00:19:31.833Z,79.10
2018-07-21T00:22:00.871Z,79.40
2018-07-21T00:24:29.971Z,79.40
2018-07-21T00:26:59.023Z,79.90
2018-07-21T00:29:28.075Z,80.20
2018-07-21T00:31:57.174Z,80.20
2018-07-21T00:34:26.230Z,80.40
2018-07-21T00:39:23.962Z,80.70
2018-07-21T00:41:53.027Z,80.80
2018-07-21T00:44:22.078Z,81.30
2018-07-21T00:46:51.130Z,81.40
2018-07-21T00:49:20.195Z,81.60
2018-07-21T00:51:49.237Z,81.70
2018-07-21T00:54:18.298Z,81.90
2018-07-21T00:56:47.362Z,82.30
2018-07-21T00:59:16.407Z,82.70
2018-07-21T01:01:45.459Z,82.70
2018-07-21T01:04:14.511Z,83.00
2018-07-21T01:06:43.616Z,83.40
2018-07-21T01:09:12.701Z,83.60
2018-07-21T01:11:41.769Z,83.70
2018-07-21T01:14:10.821Z,83.90
2018-07-21T01:16:39.896Z,83.80
2018-07-21T01:19:08.951Z,84.80
2018-07-21T01:21:37.987Z,84.00
2018-07-21T01:24:07.080Z,83.80
2018-07-21T01:26:36.147Z,83.80
2018-07-21T01:29:05.406Z,83.80
2018-07-21T01:31:34.478Z,83.70
2018-07-21T01:34:03.523Z,83.80
2018-07-21T01:36:32.591Z,83.80
2018-07-21T01:41:30.333Z,83.80
2018-07-21T01:43:59.391Z,83.60
2018-07-21T01:46:28.458Z,83.40
2018-07-21T01:48:57.517Z,83.30
2018-07-21T01:51:26.635Z,83.20
2018-07-21T01:53:55.718Z,83.10
2018-07-21T01:56:24.771Z,83.00
2018-07-21T01:58:53.836Z,83.80
2018-07-21T02:01:22.914Z,82.80
2018-07-21T02:03:52.062Z,83.30
2018-07-21T02:06:21.115Z,82.70
2018-07-21T02:11:18.882Z,82.30
2018-07-21T02:13:47.920Z,82.10
2018-07-21T02:16:16.971Z,81.90
2018-07-21T02:18:46.027Z,81.80
2018-07-21T02:21:15.169Z,81.30
2018-07-21T02:26:12.987Z,80.40
2018-07-21T02:28:42.044Z,80.50
2018-07-21T02:31:11.088Z,80.50
2018-07-21T02:33:40.147Z,80.30
2018-07-21T02:36:09.288Z,80.30
2018-07-21T02:38:38.407Z,80.30
2018-07-21T02:41:07.660Z,80.20
2018-07-21T02:46:05.646Z,80.10
2018-07-21T02:48:34.815Z,80.10
2018-07-21T02:51:04.231Z,80.10
2018-07-21T02:53:33.300Z,80.00
2018-07-21T02:56:02.376Z,80.00
2018-07-21T02:58:31.454Z,80.00
2018-07-21T03:01:00.495Z,80.60
2018-07-21T03:03:29.572Z,79.70
2018-07-21T03:05:58.648Z,79.60
2018-07-21T03:08:27.712Z,79.60
2018-07-21T03:10:56.791Z,79.50
2018-07-21T03:13:25.847Z,79.50
2018-07-21T03:15:54.964Z,79.50
2018-07-21T03:18:24.020Z,79.40
2018-07-21T03:20:53.069Z,79.30
2018-07-21T03:23:22.197Z,79.10
2018-07-21T03:25:51.188Z,79.10
2018-07-21T03:28:20.267Z,79.10
2018-07-21T03:30:49.443Z,79.10
2018-07-21T03:33:18.443Z,79.10
2018-07-21T03:38:16.175Z,79.10
2018-07-21T03:40:45.238Z,79.10
2018-07-21T03:43:14.319Z,79.10
2018-07-21T03:50:40.759Z,79.20
2018-07-21T03:53:09.822Z,79.90
2018-07-21T03:55:38.887Z,79.00
2018-07-21T03:58:07.944Z,78.90
2018-07-21T04:00:37.029Z,78.80
2018-07-21T04:03:06.071Z,78.70
2018-07-21T04:05:35.171Z,78.60
2018-07-21T04:08:04.210Z,78.50
2018-07-21T04:10:33.282Z,78.50
2018-07-21T04:13:02.411Z,78.60
2018-07-21T04:15:31.471Z,78.40
2018-07-21T04:18:00.522Z,78.50
2018-07-21T04:20:29.582Z,78.30
2018-07-21T04:22:58.631Z,78.40
2018-07-21T04:25:27.694Z,78.20
2018-07-21T04:27:56.759Z,78.20
2018-07-21T04:30:25.811Z,78.00
2018-07-21T04:32:54.887Z,77.90
2018-07-21T04:35:23.939Z,77.70
2018-07-21T04:37:53.022Z,77.50
2018-07-21T04:40:22.090Z,77.50
2018-07-21T04:42:51.141Z,77.60
2018-07-21T04:45:20.229Z,77.60
2018-07-21T04:47:49.287Z,77.60
2018-07-21T04:50:18.362Z,78.10
2018-07-21T04:52:47.411Z,78.50
2018-07-21T04:55:16.551Z,78.70
2018-07-21T04:57:45.589Z,79.10
2018-07-21T05:00:14.656Z,79.40
2018-07-21T05:05:12.392Z,79.30
2018-07-21T05:07:41.452Z,80.80
2018-07-21T05:10:10.519Z,80.40
2018-07-21T05:15:08.286Z,80.60
2018-07-21T05:17:37.345Z,80.80
2018-07-21T05:20:06.483Z,81.00
2018-07-21T05:25:04.567Z,81.00
2018-07-21T05:30:02.314Z,80.90
2018-07-21T05:32:31.404Z,81.00
2018-07-21T05:35:00.501Z,81.10
2018-07-21T05:37:29.671Z,81.00
2018-07-21T05:39:58.734Z,80.90
2018-07-21T05:42:27.821Z,80.80
2018-07-21T05:47:25.566Z,80.10
2018-07-21T05:49:54.622Z,79.90
2018-07-21T05:52:23.672Z,79.60
2018-07-21T05:54:52.745Z,79.30
2018-07-21T05:57:21.814Z,79.30
2018-07-21T05:59:50.882Z,79.20
2018-07-21T06:02:19.923Z,79.20
2018-07-21T06:04:48.983Z,79.10
2018-07-21T06:07:18.050Z,78.80
2018-07-21T06:09:47.113Z,78.60
2018-07-21T06:12:16.159Z,78.40
2018-07-21T06:14:45.234Z,78.40
2018-07-21T06:17:14.290Z,78.30
2018-07-21T06:19:43.343Z,78.20
2018-07-21T06:22:12.396Z,78.10
2018-07-21T06:24:41.470Z,77.70
2018-07-21T06:27:10.512Z,77.30
2018-07-21T06:29:39.573Z,77.20
2018-07-21T06:32:08.929Z,77.10
2018-07-21T06:34:37.975Z,77.00
2018-07-21T06:37:07.035Z,77.40
2018-07-21T06:39:36.087Z,77.10
2018-07-21T06:42:05.314Z,76.20
2018-07-21T06:44:34.363Z,76.40
2018-07-21T06:47:03.424Z,76.00
2018-07-21T06:49:32.954Z,76.80
2018-07-21T06:52:01.991Z,75.40
2018-07-21T06:54:31.090Z,74.80
2018-07-21T06:57:00.110Z,74.90
2018-07-21T06:59:29.155Z,75.20
2018-07-21T07:01:58.232Z,74.90
2018-07-21T07:04:27.455Z,75.00
2018-07-21T07:06:57.084Z,75.10
2018-07-21T07:09:26.114Z,75.00
2018-07-21T07:11:55.194Z,75.10
2018-07-21T07:14:24.240Z,75.10
2018-07-21T07:16:53.388Z,75.20
2018-07-21T07:19:22.455Z,74.90
2018-07-21T07:21:51.503Z,74.30
2018-07-21T07:24:20.581Z,74.20
2018-07-21T07:26:49.711Z,74.30
2018-07-21T07:29:18.767Z,74.20
2018-07-21T07:34:16.490Z,73.80
2018-07-21T07:36:45.718Z,73.60
2018-07-21T07:39:14.795Z,72.90
2018-07-21T07:41:43.879Z,72.60
2018-07-21T07:44:12.919Z,72.90
2018-07-21T07:46:41.959Z,73.10
2018-07-21T07:49:11.020Z,72.70
2018-07-21T07:51:40.097Z,72.60
2018-07-21T07:54:09.159Z,72.50
2018-07-21T07:56:38.215Z,72.30
2018-07-21T07:59:07.291Z,71.30
2018-07-21T08:01:36.424Z,71.60
2018-07-21T08:04:05.472Z,71.90
2018-07-21T08:09:04.019Z,71.30
2018-07-21T08:11:33.066Z,71.40
2018-07-21T08:14:02.198Z,71.30
2018-07-21T08:16:31.243Z,71.50
2018-07-21T08:19:00.295Z,71.70
2018-07-21T08:21:29.371Z,71.90
2018-07-21T08:23:58.435Z,71.30
2018-07-21T08:26:27.474Z,72.00
2018-07-21T08:28:56.535Z,71.50
2018-07-21T08:31:25.579Z,71.50
2018-07-21T08:33:54.644Z,72.00
2018-07-21T08:36:23.761Z,71.60
2018-07-21T08:38:52.904Z,71.30
2018-07-21T08:41:21.952Z,71.60
2018-07-21T08:43:51.019Z,72.00
2018-07-21T08:46:20.103Z,71.70
2018-07-21T08:48:49.158Z,71.40
2018-07-21T08:51:18.229Z,70.30
2018-07-21T08:53:47.267Z,69.00
2018-07-21T08:56:16.328Z,69.00
2018-07-21T08:58:45.404Z,69.20
2018-07-21T09:01:14.519Z,69.20
2018-07-21T09:03:43.611Z,69.00
2018-07-21T09:06:12.680Z,69.20
2018-07-21T09:08:41.727Z,69.40
2018-07-21T09:11:10.785Z,69.60
2018-07-21T09:13:40.034Z,68.30
2018-07-21T09:16:09.088Z,68.50
2018-07-21T09:18:38.152Z,68.00
2018-07-21T09:21:07.242Z,68.50
2018-07-21T09:26:05.127Z,68.60
2018-07-21T09:28:34.175Z,67.40
2018-07-21T09:31:03.247Z,66.40
2018-07-21T09:33:32.317Z,66.40
2018-07-21T09:36:01.424Z,67.20
2018-07-21T09:38:30.486Z,67.80
2018-07-21T09:40:59.552Z,67.80
2018-07-21T09:43:28.621Z,67.50
2018-07-21T09:45:57.699Z,66.80
2018-07-21T09:48:26.754Z,65.80
2018-07-21T09:50:55.828Z,65.40
2018-07-21T09:53:24.895Z,65.40
2018-07-21T09:55:54.150Z,65.50
2018-07-21T09:58:23.015Z,64.90
2018-07-21T10:00:57.463Z,64.90
2018-07-21T10:03:26.514Z,65.10
2018-07-21T10:05:55.593Z,63.90
2018-07-21T10:08:24.781Z,63.90
2018-07-21T10:10:53.866Z,64.60
2018-07-21T10:13:22.909Z,63.80
2018-07-21T10:15:51.990Z,63.00
2018-07-21T10:18:21.039Z,63.10
2018-07-21T10:20:50.083Z,62.10
2018-07-21T10:23:19.198Z,61.50
2018-07-21T10:25:53.670Z,61.20
2018-07-21T10:28:28.252Z,61.30
2018-07-21T10:30:57.296Z,60.80
2018-07-21T10:33:26.434Z,60.20
2018-07-21T10:35:55.499Z,59.40
2018-07-21T10:38:24.533Z,59.50
2018-07-21T10:40:53.583Z,58.60
2018-07-21T10:43:22.638Z,57.40
2018-07-21T10:48:20.459Z,58.50
2018-07-21T10:50:49.630Z,57.90
2018-07-21T10:53:18.599Z,57.70
2018-07-21T10:55:47.644Z,57.20
2018-07-21T10:58:16.700Z,57.50
2018-07-21T11:00:45.768Z,56.60
2018-07-21T11:03:14.827Z,56.40
2018-07-21T11:05:43.871Z,56.80
2018-07-21T11:08:12.915Z,57.40
2018-07-21T11:10:42.062Z,57.60
2018-07-21T11:13:11.119Z,57.50
2018-07-21T11:15:40.168Z,56.60
2018-07-21T11:18:09.221Z,56.60
2018-07-21T11:20:38.274Z,55.70
2018-07-21T11:23:07.327Z,56.80
2018-07-21T11:25:36.412Z,57.40
2018-07-21T11:28:05.727Z,57.30
2018-07-21T11:30:34.780Z,56.10
2018-07-21T11:33:03.939Z,56.20
2018-07-21T11:38:01.681Z,55.20
2018-07-21T11:40:30.742Z,54.70
2018-07-21T11:42:59.795Z,54.50
2018-07-21T11:45:28.830Z,53.70
2018-07-21T11:47:57.894Z,53.70
2018-07-21T11:50:26.972Z,53.00
2018-07-21T11:52:56.036Z,52.10
2018-07-21T11:55:25.182Z,51.00
2018-07-21T11:57:54.363Z,50.00
2018-07-21T12:00:23.423Z,49.60
2018-07-21T12:02:52.554Z,49.60
2018-07-21T12:05:21.627Z,49.50
2018-07-21T12:07:50.695Z,47.70
2018-07-21T12:10:19.759Z,47.10
2018-07-21T12:12:48.809Z,47.00
2018-07-21T12:15:17.887Z,47.70
2018-07-21T12:17:46.958Z,47.80
2018-07-21T12:20:16.109Z,47.10
2018-07-21T12:22:45.120Z,46.60
2018-07-21T12:25:14.174Z,46.70
2018-07-21T12:27:43.236Z,47.50
2018-07-21T12:31:15.486Z,46.50
2018-07-21T12:33:44.614Z,47.70
2018-07-21T12:36:13.599Z,46.70
2018-07-21T12:38:42.706Z,46.00
2018-07-21T12:41:11.777Z,46.90
2018-07-21T12:43:40.809Z,46.60
2018-07-21T12:46:09.883Z,46.90
2018-07-21T12:48:39.240Z,46.70
2018-07-21T12:51:08.325Z,45.60
2018-07-21T12:53:37.413Z,46.30
2018-07-21T12:56:06.477Z,46.00
2018-07-21T12:58:35.535Z,46.40
2018-07-21T13:01:04.616Z,47.30
2018-07-21T13:03:33.661Z,47.40
2018-07-21T13:06:02.723Z,47.00
2018-07-21T13:11:00.459Z,48.60
2018-07-21T13:13:29.527Z,48.70
2018-07-21T13:15:58.603Z,48.00
2018-07-21T13:18:27.659Z,48.40
2018-07-21T13:20:57.223Z,48.60
2018-07-21T13:23:26.495Z,50.00
2018-07-21T13:25:55.551Z,50.60
2018-07-21T13:28:24.959Z,50.70
2018-07-21T13:30:54.122Z,50.30
2018-07-21T13:33:23.172Z,51.20
2018-07-21T13:35:52.307Z,50.70
2018-07-21T13:40:50.083Z,49.80
2018-07-21T13:43:19.155Z,51.10
2018-07-21T13:45:48.219Z,50.20
2018-07-21T13:48:17.283Z,49.70
2018-07-21T13:50:46.367Z,49.90
2018-07-21T13:53:15.424Z,50.40
2018-07-21T13:55:44.537Z,51.20
2018-07-21T13:58:13.608Z,50.80
2018-07-21T14:00:42.829Z,51.00
2018-07-21T14:03:11.887Z,49.40
2018-07-21T14:05:40.958Z,48.60
2018-07-21T14:22:36.850Z,49.20
2018-07-21T14:25:05.947Z,48.90
2018-07-21T14:27:34.986Z,49.00
2018-07-21T14:30:04.790Z,48.40
2018-07-21T14:35:02.495Z,50.00
2018-07-21T14:37:31.587Z,49.80
2018-07-21T14:40:00.906Z,50.70
2018-07-21T14:42:29.980Z,51.10
2018-07-21T14:44:59.044Z,51.80
2018-07-21T14:47:28.150Z,52.00
2018-07-21T14:49:57.184Z,52.20
2018-07-21T14:52:26.268Z,51.50
2018-07-21T14:54:55.411Z,51.80
2018-07-21T14:57:25.440Z,51.00
2018-07-21T15:02:23.259Z,50.50
2018-07-21T15:04:52.498Z,50.90
2018-07-21T15:07:21.599Z,51.20
2018-07-21T15:09:50.677Z,52.30
2018-07-21T15:12:19.797Z,52.90
2018-07-21T15:14:48.818Z,52.60
2018-07-21T15:17:17.992Z,51.40
2018-07-21T15:19:47.104Z,51.40
2018-07-21T15:22:16.182Z,52.20
2018-07-21T15:24:45.256Z,52.50
2018-07-21T15:27:14.321Z,53.00
2018-07-21T15:29:43.374Z,52.60
2018-07-21T15:32:12.419Z,52.80
2018-07-21T15:34:41.521Z,52.00
2018-07-21T15:37:10.651Z,51.90
2018-07-21T15:39:39.800Z,53.00
2018-07-21T15:47:06.355Z,50.90
2018-07-21T15:49:35.425Z,52.70
2018-07-21T15:52:04.500Z,53.50
2018-07-21T15:54:33.590Z,53.20
2018-07-21T15:57:02.663Z,52.80
2018-07-21T15:59:31.755Z,53.00
2018-07-21T16:02:00.828Z,53.40
2018-07-21T16:04:29.884Z,53.60
2018-07-21T16:06:58.993Z,53.80
2018-07-21T16:09:28.064Z,54.40
2018-07-21T16:14:25.944Z,54.90
2018-07-21T16:16:55.051Z,55.40
2018-07-21T16:19:24.115Z,53.50
2018-07-21T16:21:53.218Z,52.50
2018-07-21T16:24:22.356Z,52.40
2018-07-21T16:26:51.392Z,52.00
2018-07-21T16:29:20.500Z,52.00
2018-07-21T16:31:49.596Z,51.50
2018-07-21T16:34:18.676Z,51.40
2018-07-21T16:36:47.951Z,50.50
2018-07-21T16:39:17.014Z,50.30
2018-07-21T16:41:46.103Z,49.80
2018-07-21T16:44:15.174Z,49.30
2018-07-21T16:46:44.260Z,48.40
2018-07-21T16:49:13.375Z,48.90
2018-07-21T16:51:42.734Z,48.70
2018-07-21T16:54:11.895Z,47.80
2018-07-21T16:56:41.019Z,45.60
2018-07-21T16:59:10.661Z,41.90
2018-07-21T17:01:39.758Z,40.30
2018-07-21T17:04:08.814Z,39.00
2018-07-21T17:06:37.916Z,37.30
2018-07-21T17:09:08.628Z,34.50
2018-07-21T17:11:37.716Z,33.70
2018-07-21T17:14:07.228Z,32.60
2018-07-21T17:16:36.302Z,32.00
2018-07-21T17:19:05.819Z,31.20
2018-07-21T17:21:34.819Z,30.40
2018-07-21T17:24:03.932Z,29.70
2018-07-21T17:26:32.996Z,29.00
2018-07-21T17:29:02.067Z,28.30
2018-07-21T17:31:31.168Z,28.10
2018-07-21T17:34:00.266Z,28.00
2018-07-21T17:36:29.335Z,28.80
2018-07-21T17:38:58.387Z,28.50
2018-07-21T17:41:27.448Z,29.30
2018-07-21T17:43:56.486Z,30.30
2018-07-21T17:46:25.567Z,30.90
2018-07-21T17:48:54.615Z,33.20
2018-07-21T17:51:23.687Z,35.00
2018-07-21T17:53:52.730Z,36.50
2018-07-21T17:56:21.800Z,37.90
2018-07-21T17:58:51.069Z,38.70
2018-07-21T18:01:20.107Z,39.80
2018-07-21T18:03:49.170Z,41.10
2018-07-21T18:06:18.223Z,41.80
2018-07-21T18:08:47.275Z,43.00
2018-07-21T18:11:16.943Z,43.90
2018-07-21T18:16:14.783Z,44.70
2018-07-21T18:18:43.900Z,45.60
2018-07-21T18:21:12.992Z,45.80
2018-07-21T18:23:42.229Z,46.20
2018-07-21T18:26:11.281Z,46.10
2018-07-21T18:28:40.350Z,46.00
2018-07-21T18:31:09.426Z,46.20
2018-07-21T18:33:38.501Z,46.80
2018-07-21T18:36:07.560Z,47.40
2018-07-21T18:38:36.607Z,47.90
2018-07-21T18:41:05.983Z,48.20
2018-07-21T18:43:35.059Z,49.00
2018-07-21T18:46:04.128Z,49.70
2018-07-21T18:48:33.181Z,50.30
2018-07-21T18:51:02.249Z,51.00
2018-07-21T18:53:31.311Z,51.30
2018-07-21T18:56:00.452Z,52.50
2018-07-21T18:58:29.632Z,52.80
2018-07-21T19:00:58.719Z,52.20
2018-07-21T19:03:27.792Z,51.60
2018-07-21T19:05:56.855Z,50.90
2018-07-21T19:08:30.137Z,50.90
2018-07-21T19:10:59.253Z,50.90
2018-07-21T19:13:28.330Z,50.40
2018-07-21T19:17:02.026Z,49.60
2018-07-21T19:19:36.579Z,49.00
2018-07-21T19:22:05.644Z,49.10
2018-07-21T19:24:34.698Z,49.00
2018-07-21T19:27:09.331Z,49.20
2018-07-21T19:29:38.767Z,48.80
2018-07-21T19:32:13.472Z,48.50
2018-07-21T19:34:42.787Z,48.60
2018-07-21T19:37:17.275Z,48.70
2018-07-21T19:39:46.620Z,49.30
2018-07-21T19:42:15.687Z,49.10
2018-07-21T19:44:45.118Z,49.50
2018-07-21T19:47:14.256Z,49.50
2018-07-21T19:49:43.239Z,49.80
2018-07-21T19:52:12.297Z,50.10
2018-07-21T19:54:41.362Z,50.60
2018-07-21T19:57:10.423Z,50.70
2018-07-21T19:59:39.489Z,51.30
2018-07-21T20:02:08.552Z,51.50
2018-07-21T20:04:37.603Z,51.70
2018-07-21T20:07:06.692Z,51.80
2018-07-21T20:09:35.767Z,52.10
2018-07-21T20:12:04.823Z,52.20
2018-07-21T20:14:33.873Z,52.10
2018-07-21T20:19:31.645Z,52.80
2018-07-21T20:22:00.687Z,53.30
2018-07-21T20:24:29.778Z,53.40
2018-07-21T20:26:58.832Z,53.70
2018-07-21T20:29:27.888Z,53.80
2018-07-21T20:31:57.146Z,53.90
2018-07-21T20:36:54.992Z,54.30
2018-07-21T20:39:24.111Z,54.30
2018-07-21T20:41:53.185Z,54.40
2018-07-21T20:44:22.367Z,54.80
2018-07-21T20:46:51.433Z,54.90
2018-07-21T20:49:20.500Z,55.00
2018-07-21T20:54:18.264Z,55.40
2018-07-21T20:56:47.334Z,55.50
2018-07-21T20:59:16.435Z,55.70
2018-07-21T21:01:45.515Z,55.80
2018-07-21T21:04:14.616Z,56.00
2018-07-21T21:06:56.911Z,56.20
2018-07-21T21:09:25.970Z,56.50
2018-07-21T21:11:55.039Z,56.80
2018-07-21T21:14:24.094Z,57.40
2018-07-21T21:16:53.164Z,57.50
2018-07-21T21:19:22.227Z,57.70
2018-07-21T21:21:51.305Z,57.50
2018-07-21T21:24:20.377Z,57.80
2018-07-21T21:26:49.454Z,57.80
2018-07-21T21:29:18.511Z,58.10
2018-07-21T21:31:47.586Z,58.30
2018-07-21T21:34:16.642Z,58.50
2018-07-21T21:36:45.710Z,58.70
2018-07-21T21:39:14.769Z,58.80
2018-07-21T21:41:43.883Z,58.90
2018-07-21T21:44:12.911Z,58.90
2018-07-21T21:46:41.998Z,59.10
2018-07-21T21:49:11.063Z,59.50
2018-07-21T21:51:40.132Z,59.40
2018-07-21T21:56:37.855Z,59.50
2018-07-21T21:59:06.929Z,59.60
2018-07-21T22:01:35.983Z,59.70
2018-07-21T22:04:05.096Z,59.80
2018-07-21T22:06:34.159Z,60.00
2018-07-21T22:09:03.328Z,60.10
2018-07-21T22:11:32.399Z,60.10
2018-07-21T22:14:01.484Z,60.20
2018-07-21T22:16:30.527Z,60.50
2018-07-21T22:18:59.641Z,60.60
2018-07-21T22:21:28.673Z,60.80
2018-07-21T22:23:57.723Z,61.20
2018-07-21T22:26:26.790Z,61.50
2018-07-21T22:28:55.848Z,62.20
2018-07-21T22:31:24.967Z,62.70
2018-07-21T22:33:54.033Z,63.20
2018-07-21T22:36:23.118Z,63.30
2018-07-21T22:38:52.166Z,63.50
2018-07-21T22:43:49.915Z,63.80
2018-07-21T22:46:18.995Z,63.70
2018-07-21T22:48:48.071Z,63.80
2018-07-21T22:51:17.135Z,64.30
2018-07-21T22:53:46.209Z,64.90
2018-07-21T22:56:15.262Z,65.00
2018-07-21T22:58:44.324Z,65.50
2018-07-21T23:01:13.414Z,66.70
2018-07-21T23:03:42.427Z,67.10
2018-07-21T23:06:11.484Z,66.50
2018-07-21T23:08:40.596Z,67.00
2018-07-21T23:13:38.371Z,68.50
2018-07-21T23:16:07.438Z,69.30
2018-07-21T23:18:36.525Z,69.90
2018-07-21T23:21:05.581Z,70.40
2018-07-21T23:23:34.651Z,70.40
2018-07-21T23:26:03.763Z,71.20
2018-07-21T23:28:32.807Z,72.00
2018-07-21T23:31:01.932Z,73.60
2018-07-21T23:33:30.943Z,74.40
2018-07-21T23:36:00.004Z,75.40
2018-07-21T23:38:29.083Z,75.70
2018-07-21T23:40:58.199Z,76.00
2018-07-21T23:43:27.298Z,76.40
2018-07-21T23:45:56.323Z,76.70
2018-07-21T23:48:25.389Z,76.90
2018-07-21T23:50:54.455Z,77.20
2018-07-21T23:53:23.523Z,77.70
2018-07-21T23:55:52.578Z,77.80
2018-07-21T23:58:21.650Z,78.00
